createdAt,value
2023-05-14T00:00:12.881Z,95.71
2023-05-14T00:01:17.379Z,95.48
2023-05-14T00:02:18.985Z,96.39
2023-05-14T00:03:20.664Z,95.77
2023-05-14T00:04:22.502Z,95.21
2023-05-14T00:05:24.117Z,95.31
2023-05-14T00:06:25.789Z,95.57
2023-05-14T00:07:27.351Z,95.21
2023-05-14T00:08:28.871Z,95.47
2023-05-14T00:09:30.405Z,95.69
2023-05-14T00:10:32.322Z,95.71
2023-05-14T00:11:33.870Z,95.86
2023-05-14T00:12:35.553Z,96.07
2023-05-14T00:13:37.160Z,96.28
2023-05-14T00:14:38.684Z,96.40
2023-05-14T00:15:40.230Z,96.49
2023-05-14T00:16:41.750Z,96.47
2023-05-14T00:17:43.354Z,96.70
2023-05-14T00:18:44.943Z,96.99
2023-05-14T00:19:46.484Z,97.54
2023-05-14T00:20:48.013Z,98.28
2023-05-14T00:21:49.616Z,98.70
2023-05-14T00:22:51.129Z,99.61
2023-05-14T00:23:52.719Z,100.00
2023-05-14T00:24:54.249Z,100.00
2023-05-14T00:25:55.817Z,100.00
2023-05-14T00:26:57.340Z,100.00
2023-05-14T00:27:58.909Z,100.00
2023-05-14T00:29:00.450Z,99.53
2023-05-14T00:30:04.631Z,98.81
2023-05-14T00:31:06.316Z,98.29
2023-05-14T00:32:08.218Z,98.39
2023-05-14T00:33:09.799Z,98.34
2023-05-14T00:34:11.512Z,99.21
2023-05-14T00:35:13.228Z,100.00
2023-05-14T00:36:14.731Z,100.00
2023-05-14T00:37:16.347Z,100.00
2023-05-14T00:38:17.933Z,100.00
2023-05-14T00:39:19.543Z,99.65
2023-05-14T00:40:25.669Z,99.32
2023-05-14T00:41:27.792Z,98.93
2023-05-14T00:42:29.337Z,98.76
2023-05-14T00:43:30.873Z,98.53
2023-05-14T00:44:32.685Z,98.54
2023-05-14T00:45:34.305Z,99.51
2023-05-14T00:46:35.918Z,100.00
2023-05-14T00:47:37.810Z,100.00
2023-05-14T00:48:39.567Z,100.00
2023-05-14T00:49:41.591Z,100.00
2023-05-14T00:50:43.378Z,100.00
2023-05-14T00:51:45.546Z,100.00
2023-05-14T00:52:47.332Z,100.00
2023-05-14T00:53:49.946Z,100.00
2023-05-14T00:54:51.859Z,100.00
2023-05-14T00:55:53.433Z,100.00
2023-05-14T00:56:55.503Z,100.00
2023-05-14T00:57:58.857Z,100.00
2023-05-14T00:59:00.591Z,100.00
2023-05-14T01:00:03.270Z,100.00
2023-05-14T01:01:05.127Z,100.00
2023-05-14T01:02:06.793Z,100.00
2023-05-14T01:03:09.064Z,100.00
2023-05-14T01:04:11.807Z,100.00
2023-05-14T01:05:13.376Z,99.82
2023-05-14T01:06:32.724Z,99.62
2023-05-14T01:08:00.559Z,99.92
2023-05-14T01:09:25.383Z,99.97
2023-05-14T01:10:37.688Z,100.00
2023-05-14T01:12:06.747Z,100.00
2023-05-14T01:13:16.659Z,100.00
2023-05-14T01:14:29.890Z,99.82
2023-05-14T01:15:34.425Z,99.93
2023-05-14T01:16:38.396Z,99.90
2023-05-14T01:17:54.121Z,100.00
2023-05-14T01:18:57.005Z,99.71
2023-05-14T01:19:59.653Z,99.79
2023-05-14T01:21:01.792Z,99.76
2023-05-14T01:22:03.491Z,99.96
2023-05-14T01:23:05.079Z,100.00
2023-05-14T01:24:07.582Z,99.75
2023-05-14T01:25:09.570Z,99.92
2023-05-14T01:26:11.108Z,99.99
2023-05-14T01:27:24.523Z,99.95
2023-05-14T01:28:32.561Z,100.00
2023-05-14T01:29:37.553Z,100.00
2023-05-14T01:30:53.190Z,100.00
2023-05-14T01:31:57.981Z,100.00
2023-05-14T01:33:02.430Z,100.00
2023-05-14T01:34:05.595Z,100.00
2023-05-14T01:35:09.500Z,100.00
2023-05-14T01:36:11.396Z,100.00
2023-05-14T01:37:13.602Z,100.00
2023-05-14T01:38:17.800Z,100.00
2023-05-14T01:39:19.738Z,100.00
2023-05-14T01:40:22.859Z,100.00
2023-05-14T01:41:25.814Z,100.00
2023-05-14T01:42:28.531Z,100.00
2023-05-14T01:43:30.649Z,100.00
2023-05-14T01:44:33.000Z,100.00
2023-05-14T01:45:35.654Z,100.00
2023-05-14T01:46:37.450Z,100.00
2023-05-14T01:47:39.378Z,100.00
2023-05-14T01:48:40.921Z,100.00
2023-05-14T01:49:42.451Z,100.00
2023-05-14T01:50:44.054Z,100.00
2023-05-14T01:51:45.760Z,100.00
2023-05-14T01:52:47.572Z,100.00
2023-05-14T01:53:49.088Z,100.00
2023-05-14T01:54:50.709Z,100.00
2023-05-14T01:55:52.270Z,100.00
2023-05-14T01:56:53.870Z,100.00
2023-05-14T01:57:55.442Z,100.00
2023-05-14T01:58:56.987Z,100.00
2023-05-14T01:59:58.925Z,100.00
2023-05-14T02:01:04.052Z,100.00
2023-05-14T02:02:05.649Z,100.00
2023-05-14T02:03:07.196Z,100.00
2023-05-14T02:04:09.012Z,100.00
2023-05-14T02:05:12.070Z,100.00
2023-05-14T02:06:13.768Z,100.00
2023-05-14T02:07:15.332Z,100.00
2023-05-14T02:08:16.844Z,100.00
2023-05-14T02:09:18.420Z,100.00
2023-05-14T02:10:20.103Z,100.00
2023-05-14T02:11:24.575Z,100.00
2023-05-14T02:12:26.112Z,100.00
2023-05-14T02:13:27.679Z,100.00
2023-05-14T02:14:29.217Z,100.00
2023-05-14T02:15:30.798Z,100.00
2023-05-14T02:16:32.420Z,100.00
2023-05-14T02:17:34.132Z,100.00
2023-05-14T02:18:35.678Z,100.00
2023-05-14T02:19:37.388Z,100.00
2023-05-14T02:20:38.935Z,100.00
2023-05-14T02:21:40.632Z,100.00
2023-05-14T02:22:42.244Z,100.00
2023-05-14T02:23:43.828Z,100.00
2023-05-14T02:24:45.395Z,100.00
2023-05-14T02:25:46.873Z,100.00
2023-05-14T02:26:48.541Z,100.00
2023-05-14T02:27:50.069Z,100.00
2023-05-14T02:28:51.623Z,100.00
2023-05-14T02:29:53.537Z,100.00
2023-05-14T02:31:01.239Z,100.00
2023-05-14T02:32:02.840Z,100.00
2023-05-14T02:33:04.460Z,100.00
2023-05-14T02:34:06.391Z,100.00
2023-05-14T02:35:09.075Z,100.00
2023-05-14T02:36:10.614Z,100.00
2023-05-14T02:37:12.617Z,100.00
2023-05-14T02:38:14.165Z,100.00
2023-05-14T02:39:15.703Z,100.00
2023-05-14T02:40:20.383Z,100.00
2023-05-14T02:41:21.968Z,100.00
2023-05-14T02:42:23.560Z,100.00
2023-05-14T02:43:25.132Z,100.00
2023-05-14T02:44:27.094Z,100.00
2023-05-14T02:45:28.612Z,100.00
2023-05-14T02:46:31.376Z,100.00
2023-05-14T02:47:33.114Z,100.00
2023-05-14T02:48:34.704Z,100.00
2023-05-14T02:49:36.397Z,100.00
2023-05-14T02:50:37.975Z,100.00
2023-05-14T02:51:39.511Z,100.00
2023-05-14T02:52:41.031Z,100.00
2023-05-14T02:53:42.655Z,100.00
2023-05-14T02:54:44.209Z,100.00
2023-05-14T02:55:45.764Z,100.00
2023-05-14T02:56:47.458Z,100.00
2023-05-14T02:57:49.002Z,100.00
2023-05-14T02:58:50.550Z,100.00
2023-05-14T02:59:52.161Z,100.00
2023-05-14T03:00:54.258Z,100.00
2023-05-14T03:01:56.452Z,100.00
2023-05-14T03:02:58.564Z,100.00
2023-05-14T03:04:00.792Z,100.00
2023-05-14T03:05:02.497Z,100.00
2023-05-14T03:06:05.132Z,100.00
2023-05-14T03:07:06.723Z,100.00
2023-05-14T03:08:08.307Z,100.00
2023-05-14T03:09:10.033Z,100.00
2023-05-14T03:10:11.607Z,100.00
2023-05-14T03:11:13.257Z,100.00
2023-05-14T03:12:14.792Z,100.00
2023-05-14T03:13:16.281Z,100.00
2023-05-14T03:14:17.874Z,100.00
2023-05-14T03:15:19.546Z,100.00
2023-05-14T03:16:21.215Z,100.00
2023-05-14T03:17:22.836Z,100.00
2023-05-14T03:18:25.024Z,100.00
2023-05-14T03:19:26.827Z,100.00
2023-05-14T03:20:28.601Z,100.00
2023-05-14T03:21:30.187Z,100.00
2023-05-14T03:22:31.852Z,100.00
2023-05-14T03:23:33.502Z,100.00
2023-05-14T03:24:35.108Z,100.00
2023-05-14T03:25:37.613Z,100.00
2023-05-14T03:26:39.164Z,100.00
2023-05-14T03:27:40.702Z,100.00
2023-05-14T03:28:42.546Z,100.00
2023-05-14T03:29:44.083Z,100.00
2023-05-14T03:30:45.716Z,100.00
2023-05-14T03:31:47.278Z,100.00
2023-05-14T03:32:48.946Z,100.00
2023-05-14T03:33:50.551Z,100.00
2023-05-14T03:34:52.181Z,100.00
2023-05-14T03:35:53.753Z,100.00
2023-05-14T03:36:57.312Z,100.00
2023-05-14T03:37:58.812Z,100.00
2023-05-14T03:39:00.294Z,100.00
2023-05-14T03:40:01.858Z,100.00
2023-05-14T03:41:03.438Z,100.00
2023-05-14T03:42:05.180Z,100.00
2023-05-14T03:43:06.760Z,100.00
2023-05-14T03:44:08.726Z,100.00
2023-05-14T03:45:10.848Z,100.00
2023-05-14T03:46:12.404Z,100.00
2023-05-14T03:47:14.015Z,100.00
2023-05-14T03:48:15.651Z,100.00
2023-05-14T03:49:17.249Z,100.00
2023-05-14T03:50:19.894Z,100.00
2023-05-14T03:51:21.427Z,100.00
2023-05-14T03:52:22.992Z,100.00
2023-05-14T03:53:24.523Z,100.00
2023-05-14T03:54:26.504Z,100.00
2023-05-14T03:55:28.258Z,100.00
2023-05-14T03:56:29.821Z,100.00
2023-05-14T03:57:31.337Z,100.00
2023-05-14T03:58:32.867Z,100.00
2023-05-14T03:59:34.954Z,100.00
2023-05-14T04:00:36.540Z,100.00
2023-05-14T04:01:38.691Z,100.00
2023-05-14T04:02:40.338Z,100.00
2023-05-14T04:03:42.108Z,100.00
2023-05-14T04:04:43.827Z,100.00
2023-05-14T04:05:45.465Z,100.00
2023-05-14T04:06:47.035Z,100.00
2023-05-14T04:07:48.540Z,100.00
2023-05-14T04:08:50.103Z,100.00
2023-05-14T04:09:51.656Z,100.00
2023-05-14T04:10:53.235Z,100.00
2023-05-14T04:11:57.740Z,100.00
2023-05-14T04:12:59.496Z,100.00
2023-05-14T04:14:05.814Z,100.00
2023-05-14T04:15:08.032Z,100.00
2023-05-14T04:16:09.626Z,100.00
2023-05-14T04:17:11.177Z,100.00
2023-05-14T04:18:12.875Z,100.00
2023-05-14T04:19:14.546Z,100.00
2023-05-14T04:20:16.850Z,100.00
2023-05-14T04:21:18.445Z,100.00
2023-05-14T04:22:19.952Z,100.00
2023-05-14T04:23:21.860Z,100.00
2023-05-14T04:24:23.380Z,100.00
2023-05-14T04:25:24.863Z,100.00
2023-05-14T04:26:26.450Z,100.00
2023-05-14T04:27:28.742Z,100.00
2023-05-14T04:28:30.246Z,100.00
2023-05-14T04:29:31.741Z,100.00
2023-05-14T04:30:33.314Z,100.00
2023-05-14T04:31:34.931Z,100.00
2023-05-14T04:32:36.541Z,100.00
2023-05-14T04:33:38.149Z,100.00
2023-05-14T04:34:39.670Z,100.00
2023-05-14T04:35:41.297Z,100.00
2023-05-14T04:36:42.817Z,100.00
2023-05-14T04:37:44.364Z,100.00
2023-05-14T04:38:45.893Z,100.00
2023-05-14T04:39:47.426Z,100.00
2023-05-14T04:40:48.984Z,100.00
2023-05-14T04:41:50.516Z,100.00
2023-05-14T04:42:52.051Z,100.00
2023-05-14T04:43:56.211Z,100.00
2023-05-14T04:44:57.729Z,100.00
2023-05-14T04:45:59.246Z,100.00
2023-05-14T04:47:00.829Z,100.00
2023-05-14T04:48:03.923Z,100.00
2023-05-14T04:49:05.450Z,100.00
2023-05-14T04:50:07.784Z,100.00
2023-05-14T04:51:09.586Z,100.00
2023-05-14T04:52:11.355Z,100.00
2023-05-14T04:53:12.880Z,100.00
2023-05-14T04:54:14.478Z,100.00
2023-05-14T04:55:16.066Z,100.00
2023-05-14T04:56:17.626Z,100.00
2023-05-14T04:57:19.222Z,100.00
2023-05-14T04:58:20.727Z,100.00
2023-05-14T04:59:22.571Z,100.00
2023-05-14T05:00:24.706Z,100.00
2023-05-14T05:01:26.585Z,100.00
2023-05-14T05:02:28.182Z,100.00
2023-05-14T05:03:29.815Z,100.00
2023-05-14T05:04:31.696Z,100.00
2023-05-14T05:05:33.171Z,100.00
2023-05-14T05:06:34.738Z,100.00
2023-05-14T05:07:36.294Z,100.00
2023-05-14T05:08:37.818Z,100.00
2023-05-14T05:09:39.379Z,100.00
2023-05-14T05:10:40.865Z,100.00
2023-05-14T05:11:42.397Z,100.00
2023-05-14T05:12:43.939Z,100.00
2023-05-14T05:13:45.456Z,100.00
2023-05-14T05:14:48.178Z,100.00
2023-05-14T05:15:49.800Z,100.00
2023-05-14T05:16:51.483Z,100.00
2023-05-14T05:17:53.064Z,100.00
2023-05-14T05:18:54.653Z,100.00
2023-05-14T05:19:56.309Z,100.00
2023-05-14T05:20:57.850Z,100.00
2023-05-14T05:21:59.462Z,100.00
2023-05-14T05:23:01.027Z,100.00
2023-05-14T05:24:02.612Z,100.00
2023-05-14T05:25:04.455Z,100.00
2023-05-14T05:26:05.996Z,100.00
2023-05-14T05:27:07.570Z,100.00
2023-05-14T05:28:09.093Z,100.00
2023-05-14T05:29:10.639Z,100.00
2023-05-14T05:30:12.439Z,100.00
2023-05-14T05:31:14.101Z,100.00
2023-05-14T05:32:15.735Z,100.00
2023-05-14T05:33:17.331Z,100.00
2023-05-14T05:34:18.873Z,100.00
2023-05-14T05:35:20.411Z,100.00
2023-05-14T05:36:21.953Z,100.00
2023-05-14T05:37:23.453Z,100.00
2023-05-14T05:38:25.018Z,100.00
2023-05-14T05:39:26.518Z,100.00
2023-05-14T05:40:28.137Z,100.00
2023-05-14T05:41:29.680Z,100.00
2023-05-14T05:42:31.248Z,100.00
2023-05-14T05:43:32.764Z,100.00
2023-05-14T05:44:34.428Z,100.00
2023-05-14T05:45:35.938Z,100.00
2023-05-14T05:46:37.548Z,100.00
2023-05-14T05:47:39.311Z,100.00
2023-05-14T05:48:40.867Z,100.00
2023-05-14T05:49:42.496Z,100.00
2023-05-14T05:50:47.000Z,100.00
2023-05-14T05:51:48.679Z,100.00
2023-05-14T05:52:50.212Z,100.00
2023-05-14T05:53:51.752Z,100.00
2023-05-14T05:54:53.333Z,100.00
2023-05-14T05:55:54.883Z,100.00
2023-05-14T05:56:56.472Z,100.00
2023-05-14T05:57:58.017Z,100.00
2023-05-14T05:58:59.540Z,99.14
2023-05-14T06:00:01.067Z,98.74
2023-05-14T06:01:02.658Z,98.34
2023-05-14T06:02:04.494Z,97.56
2023-05-14T06:03:06.052Z,97.00
2023-05-14T06:04:07.720Z,96.42
2023-05-14T06:05:10.675Z,96.43
2023-05-14T06:06:12.342Z,96.13
2023-05-14T06:07:13.890Z,94.41
2023-05-14T06:08:15.405Z,94.48
2023-05-14T06:09:16.972Z,94.47
2023-05-14T06:10:18.817Z,93.78
2023-05-14T06:11:20.326Z,92.94
2023-05-14T06:12:21.955Z,93.25
2023-05-14T06:13:23.502Z,93.02
2023-05-14T06:14:25.107Z,91.79
2023-05-14T06:15:26.666Z,91.65
2023-05-14T06:16:28.290Z,91.48
2023-05-14T06:17:29.853Z,91.25
2023-05-14T06:18:31.526Z,90.25
2023-05-14T06:19:33.108Z,89.75
2023-05-14T06:20:34.751Z,89.89
2023-05-14T06:21:36.303Z,89.17
2023-05-14T06:22:37.967Z,89.55
2023-05-14T06:23:39.770Z,90.03
2023-05-14T06:24:41.348Z,89.25
2023-05-14T06:25:42.889Z,88.62
2023-05-14T06:26:44.385Z,87.99
2023-05-14T06:27:45.988Z,87.72
2023-05-14T06:28:47.526Z,87.70
2023-05-14T06:29:49.070Z,86.98
2023-05-14T06:30:50.662Z,86.72
2023-05-14T06:31:52.549Z,87.29
2023-05-14T06:32:54.238Z,87.12
2023-05-14T06:33:55.858Z,85.70
2023-05-14T06:34:57.403Z,85.21
2023-05-14T06:36:00.621Z,84.89
2023-05-14T06:37:02.165Z,84.25
2023-05-14T06:38:03.716Z,83.47
2023-05-14T06:39:05.246Z,83.48
2023-05-14T06:40:07.416Z,83.28
2023-05-14T06:41:08.980Z,83.44
2023-05-14T06:42:10.544Z,83.77
2023-05-14T06:43:12.088Z,83.20
2023-05-14T06:44:13.641Z,84.93
2023-05-14T06:45:15.299Z,81.17
2023-05-14T06:46:16.927Z,81.61
2023-05-14T06:47:18.481Z,81.18
2023-05-14T06:48:20.500Z,80.51
2023-05-14T06:49:22.091Z,80.30
2023-05-14T06:50:23.849Z,80.26
2023-05-14T06:51:25.710Z,79.80
2023-05-14T06:52:27.367Z,77.88
2023-05-14T06:53:28.865Z,77.64
2023-05-14T06:54:30.421Z,78.57
2023-05-14T06:55:31.950Z,79.00
2023-05-14T06:56:33.555Z,78.84
2023-05-14T06:57:35.083Z,79.02
2023-05-14T06:58:36.591Z,79.15
2023-05-14T06:59:38.245Z,79.77
2023-05-14T07:00:40.062Z,77.16
2023-05-14T07:01:41.680Z,75.45
2023-05-14T07:02:43.300Z,73.17
2023-05-14T07:03:44.897Z,73.93
2023-05-14T07:04:46.619Z,75.95
2023-05-14T07:05:48.339Z,76.00
2023-05-14T07:06:49.898Z,75.95
2023-05-14T07:07:51.565Z,73.58
2023-05-14T07:08:53.089Z,74.60
2023-05-14T07:09:54.641Z,73.61
2023-05-14T07:10:56.158Z,72.17
2023-05-14T07:11:57.713Z,72.92
2023-05-14T07:12:59.231Z,72.05
2023-05-14T07:14:00.940Z,72.93
2023-05-14T07:15:02.525Z,72.08
2023-05-14T07:16:04.349Z,72.58
2023-05-14T07:17:05.938Z,72.26
2023-05-14T07:18:07.739Z,72.08
2023-05-14T07:19:09.413Z,72.17
2023-05-14T07:20:11.614Z,71.42
2023-05-14T07:21:13.202Z,71.16
2023-05-14T07:22:16.595Z,72.26
2023-05-14T07:23:19.931Z,71.84
2023-05-14T07:24:21.619Z,71.66
2023-05-14T07:25:23.267Z,72.63
2023-05-14T07:26:24.802Z,73.44
2023-05-14T07:27:26.371Z,74.37
2023-05-14T07:28:27.919Z,75.09
2023-05-14T07:29:29.509Z,74.02
2023-05-14T07:30:31.166Z,74.34
2023-05-14T07:31:32.891Z,73.58
2023-05-14T07:32:34.591Z,74.33
2023-05-14T07:33:36.538Z,73.41
2023-05-14T07:34:38.172Z,73.84
2023-05-14T07:35:39.807Z,75.13
2023-05-14T07:36:41.495Z,72.42
2023-05-14T07:37:43.268Z,72.65
2023-05-14T07:38:44.876Z,73.17
2023-05-14T07:39:46.437Z,71.47
2023-05-14T07:40:48.005Z,69.88
2023-05-14T07:41:49.525Z,69.57
2023-05-14T07:42:51.347Z,70.41
2023-05-14T07:43:52.914Z,72.77
2023-05-14T07:44:54.497Z,72.23
2023-05-14T07:45:56.042Z,70.13
2023-05-14T07:46:57.736Z,68.67
2023-05-14T07:47:59.593Z,69.70
2023-05-14T07:49:01.287Z,70.38
2023-05-14T07:50:03.230Z,68.94
2023-05-14T07:51:04.811Z,68.68
2023-05-14T07:52:08.373Z,68.75
2023-05-14T07:53:09.981Z,68.68
2023-05-14T07:54:11.527Z,68.53
2023-05-14T07:55:13.107Z,68.79
2023-05-14T07:56:14.656Z,66.85
2023-05-14T07:57:16.188Z,66.26
2023-05-14T07:58:17.729Z,65.53
2023-05-14T07:59:19.502Z,64.42
2023-05-14T08:00:21.101Z,65.80
2023-05-14T08:01:23.259Z,66.14
2023-05-14T08:02:24.917Z,64.84
2023-05-14T08:03:26.784Z,64.34
2023-05-14T08:04:28.472Z,62.73
2023-05-14T08:05:30.087Z,63.48
2023-05-14T08:06:31.603Z,64.07
2023-05-14T08:07:33.134Z,63.84
2023-05-14T08:08:35.005Z,63.69
2023-05-14T08:09:36.862Z,63.12
2023-05-14T08:10:38.571Z,62.76
2023-05-14T08:11:40.513Z,62.07
2023-05-14T08:12:42.190Z,61.41
2023-05-14T08:13:43.896Z,60.87
2023-05-14T08:14:45.419Z,61.26
2023-05-14T08:15:47.049Z,60.45
2023-05-14T08:16:48.661Z,61.68
2023-05-14T08:17:50.354Z,59.83
2023-05-14T08:18:52.163Z,59.45
2023-05-14T08:19:53.953Z,59.76
2023-05-14T08:20:55.480Z,59.64
2023-05-14T08:21:58.427Z,59.21
2023-05-14T08:22:59.948Z,60.02
2023-05-14T08:24:01.498Z,62.25
2023-05-14T08:25:03.205Z,61.80
2023-05-14T08:26:04.842Z,60.01
2023-05-14T08:27:06.381Z,59.35
2023-05-14T08:28:08.036Z,59.60
2023-05-14T08:29:11.013Z,59.50
2023-05-14T08:30:13.769Z,58.81
2023-05-14T08:31:15.409Z,59.56
2023-05-14T08:32:23.518Z,59.11
2023-05-14T08:33:25.801Z,59.29
2023-05-14T08:34:27.386Z,59.04
2023-05-14T08:35:29.047Z,58.33
2023-05-14T08:36:30.592Z,57.84
2023-05-14T08:37:32.150Z,58.04
2023-05-14T08:38:33.852Z,57.94
2023-05-14T08:39:35.375Z,58.20
2023-05-14T08:40:37.053Z,58.82
2023-05-14T08:41:39.903Z,59.16
2023-05-14T08:42:41.422Z,59.30
2023-05-14T08:43:59.182Z,58.85
2023-05-14T08:45:03.024Z,58.87
2023-05-14T08:46:05.956Z,57.63
2023-05-14T08:47:07.586Z,57.25
2023-05-14T08:48:13.408Z,56.91
2023-05-14T08:49:19.090Z,56.94
2023-05-14T08:50:23.028Z,56.56
2023-05-14T08:51:27.604Z,56.44
2023-05-14T08:52:29.950Z,56.13
2023-05-14T08:53:31.509Z,55.41
2023-05-14T08:54:33.303Z,56.24
2023-05-14T08:55:36.430Z,58.96
2023-05-14T08:56:39.023Z,58.42
2023-05-14T08:57:40.653Z,57.38
2023-05-14T08:58:42.199Z,58.20
2023-05-14T08:59:43.821Z,58.97
2023-05-14T09:00:45.488Z,58.89
2023-05-14T09:01:51.572Z,59.75
2023-05-14T09:02:53.293Z,58.60
2023-05-14T09:03:55.059Z,58.30
2023-05-14T09:05:01.749Z,58.81
2023-05-14T09:06:04.760Z,58.00
2023-05-14T09:07:07.348Z,58.62
2023-05-14T09:08:08.871Z,58.68
2023-05-14T09:09:10.749Z,58.74
2023-05-14T09:10:12.378Z,58.65
2023-05-14T09:11:13.942Z,58.61
2023-05-14T09:12:15.482Z,58.50
2023-05-14T09:13:17.046Z,58.12
2023-05-14T09:14:19.604Z,58.93
2023-05-14T09:15:21.192Z,60.04
2023-05-14T09:16:25.460Z,60.41
2023-05-14T09:17:27.222Z,60.70
2023-05-14T09:18:28.978Z,61.09
2023-05-14T09:19:30.896Z,62.98
2023-05-14T09:20:32.624Z,63.44
2023-05-14T09:21:34.890Z,62.75
2023-05-14T09:22:36.450Z,63.81
2023-05-14T09:23:42.549Z,65.56
2023-05-14T09:24:44.825Z,64.02
2023-05-14T09:25:47.904Z,63.16
2023-05-14T09:26:51.113Z,62.42
2023-05-14T09:27:52.652Z,61.31
2023-05-14T09:28:58.707Z,61.58
2023-05-14T09:30:11.298Z,62.35
2023-05-14T09:31:13.131Z,63.55
2023-05-14T09:32:14.686Z,63.37
2023-05-14T09:33:26.221Z,63.13
2023-05-14T09:34:28.602Z,62.96
2023-05-14T09:35:30.175Z,62.47
2023-05-14T09:36:34.341Z,63.81
2023-05-14T09:37:41.776Z,63.77
2023-05-14T09:38:43.558Z,61.93
2023-05-14T09:39:45.122Z,62.74
2023-05-14T09:40:46.788Z,61.86
2023-05-14T09:41:48.337Z,59.98
2023-05-14T09:42:50.213Z,60.96
2023-05-14T09:43:51.983Z,61.04
2023-05-14T09:44:53.755Z,60.25
2023-05-14T09:45:55.312Z,59.59
2023-05-14T09:46:56.944Z,59.62
2023-05-14T09:48:00.269Z,60.83
2023-05-14T09:49:01.881Z,60.06
2023-05-14T09:50:06.597Z,60.14
2023-05-14T09:51:10.393Z,61.95
2023-05-14T09:52:13.058Z,62.42
2023-05-14T09:53:14.622Z,62.77
2023-05-14T09:54:16.376Z,61.46
2023-05-14T09:55:20.048Z,60.92
2023-05-14T09:56:21.598Z,60.56
2023-05-14T09:57:23.214Z,60.96
2023-05-14T09:58:24.751Z,60.84
2023-05-14T09:59:26.308Z,62.54
2023-05-14T10:00:29.875Z,61.91
2023-05-14T10:01:32.539Z,61.93
2023-05-14T10:02:38.272Z,60.17
2023-05-14T10:03:40.783Z,60.72
2023-05-14T10:04:44.140Z,61.74
2023-05-14T10:05:48.884Z,61.59
2023-05-14T10:06:53.216Z,61.88
2023-05-14T10:07:59.085Z,61.85
2023-05-14T10:09:05.603Z,60.00
2023-05-14T10:10:10.579Z,57.96
2023-05-14T10:11:18.960Z,58.25
2023-05-14T10:12:23.076Z,57.64
2023-05-14T10:13:37.303Z,58.78
2023-05-14T10:14:42.913Z,59.21
2023-05-14T10:15:52.030Z,58.34
2023-05-14T10:16:56.067Z,60.39
2023-05-14T10:18:00.893Z,60.85
2023-05-14T10:19:10.070Z,61.79
2023-05-14T10:20:15.515Z,60.41
2023-05-14T10:21:20.854Z,59.91
2023-05-14T10:22:26.934Z,60.09
2023-05-14T10:23:28.784Z,59.40
2023-05-14T10:24:30.842Z,58.88
2023-05-14T10:25:33.076Z,58.87
2023-05-14T10:26:37.876Z,59.67
2023-05-14T10:27:40.978Z,59.29
2023-05-14T10:28:43.172Z,60.77
2023-05-14T10:29:52.005Z,58.11
2023-05-14T10:30:54.599Z,58.24
2023-05-14T10:31:56.228Z,57.53
2023-05-14T10:33:13.572Z,58.09
2023-05-14T10:34:37.649Z,57.12
2023-05-14T10:36:04.014Z,57.73
2023-05-14T10:37:08.276Z,57.86
2023-05-14T10:38:09.852Z,58.04
2023-05-14T10:39:11.420Z,58.04
2023-05-14T10:40:13.955Z,57.70
2023-05-14T10:41:15.645Z,58.25
2023-05-14T10:42:21.777Z,59.35
2023-05-14T10:43:26.586Z,59.08
2023-05-14T10:44:28.995Z,59.20
2023-05-14T10:45:30.576Z,59.37
2023-05-14T10:46:32.353Z,59.50
2023-05-14T10:47:38.990Z,59.97
2023-05-14T10:48:44.105Z,61.50
2023-05-14T10:49:47.015Z,59.76
2023-05-14T10:50:50.650Z,60.78
2023-05-14T10:51:53.959Z,59.84
2023-05-14T10:52:56.061Z,57.78
2023-05-14T10:54:00.886Z,57.12
2023-05-14T10:55:04.862Z,56.72
2023-05-14T10:56:13.626Z,56.75
2023-05-14T10:57:15.388Z,56.94
2023-05-14T10:58:18.062Z,57.86
2023-05-14T10:59:19.605Z,58.02
2023-05-14T11:00:25.774Z,58.36
2023-05-14T11:01:27.864Z,56.88
2023-05-14T11:02:31.876Z,56.96
2023-05-14T11:03:40.166Z,57.61
2023-05-14T11:04:41.708Z,58.15
2023-05-14T11:05:44.733Z,57.15
2023-05-14T11:06:47.147Z,57.85
2023-05-14T11:07:50.104Z,57.43
2023-05-14T11:08:52.412Z,58.46
2023-05-14T11:09:57.837Z,59.39
2023-05-14T11:11:00.064Z,58.94
2023-05-14T11:12:01.645Z,58.49
2023-05-14T11:13:03.263Z,58.73
2023-05-14T11:14:04.885Z,59.94
2023-05-14T11:15:11.197Z,61.45
2023-05-14T11:16:22.680Z,59.15
2023-05-14T11:17:29.803Z,60.23
2023-05-14T11:18:34.794Z,60.01
2023-05-14T11:19:36.460Z,61.14
2023-05-14T11:20:38.153Z,60.22
2023-05-14T11:21:39.713Z,61.99
2023-05-14T11:22:42.892Z,61.51
2023-05-14T11:23:46.592Z,60.65
2023-05-14T11:24:48.693Z,61.57
2023-05-14T11:25:52.029Z,60.90
2023-05-14T11:26:53.684Z,59.71
2023-05-14T11:27:55.269Z,59.45
2023-05-14T11:28:56.894Z,60.13
2023-05-14T11:29:58.511Z,60.63
2023-05-14T11:31:00.047Z,61.49
2023-05-14T11:32:02.997Z,61.67
2023-05-14T11:33:04.800Z,60.19
2023-05-14T11:34:07.664Z,61.03
2023-05-14T11:35:09.381Z,61.08
2023-05-14T11:36:11.508Z,59.15
2023-05-14T11:37:15.588Z,58.56
2023-05-14T11:38:19.216Z,58.59
2023-05-14T11:39:20.794Z,58.90
2023-05-14T11:40:22.700Z,61.46
2023-05-14T11:41:24.512Z,61.29
2023-05-14T11:42:26.075Z,60.15
2023-05-14T11:43:28.030Z,59.79
2023-05-14T11:44:29.951Z,60.68
2023-05-14T11:45:31.628Z,62.32
2023-05-14T11:46:33.375Z,63.25
2023-05-14T11:47:35.100Z,64.50
2023-05-14T11:48:36.658Z,61.68
2023-05-14T11:49:38.244Z,61.87
2023-05-14T11:50:39.804Z,60.50
2023-05-14T11:51:41.341Z,60.10
2023-05-14T11:52:42.861Z,60.40
2023-05-14T11:53:44.957Z,60.50
2023-05-14T11:54:46.748Z,61.17
2023-05-14T11:55:48.332Z,60.61
2023-05-14T11:56:51.541Z,60.89
2023-05-14T11:57:53.734Z,60.71
2023-05-14T11:58:57.118Z,60.27
2023-05-14T11:59:58.747Z,61.22
2023-05-14T12:01:00.518Z,60.77
2023-05-14T12:02:03.927Z,61.30
2023-05-14T12:03:05.871Z,60.56
2023-05-14T12:04:07.594Z,59.57
2023-05-14T12:05:12.941Z,59.71
2023-05-14T12:06:14.478Z,57.91
2023-05-14T12:07:16.770Z,57.05
2023-05-14T12:08:22.771Z,58.18
2023-05-14T12:09:24.728Z,59.05
2023-05-14T12:10:26.539Z,58.96
2023-05-14T12:11:31.568Z,60.07
2023-05-14T12:12:36.601Z,59.40
2023-05-14T12:13:39.620Z,60.23
2023-05-14T12:14:42.984Z,58.66
2023-05-14T12:15:45.975Z,58.80
2023-05-14T12:16:48.616Z,59.31
2023-05-14T12:17:50.955Z,59.41
2023-05-14T12:18:52.582Z,60.12
2023-05-14T12:19:54.141Z,60.43
2023-05-14T12:20:56.236Z,61.77
2023-05-14T12:22:00.962Z,60.47
2023-05-14T12:23:02.517Z,61.45
2023-05-14T12:24:04.342Z,61.76
2023-05-14T12:25:11.500Z,62.09
2023-05-14T12:26:13.369Z,61.72
2023-05-14T12:27:15.012Z,61.47
2023-05-14T12:28:17.997Z,62.17
2023-05-14T12:29:19.576Z,60.00
2023-05-14T12:30:22.046Z,59.42
2023-05-14T12:31:35.195Z,59.72
2023-05-14T12:32:38.865Z,60.18
2023-05-14T12:33:40.497Z,61.05
2023-05-14T12:34:42.041Z,60.90
2023-05-14T12:35:43.576Z,61.57
2023-05-14T12:36:45.171Z,61.76
2023-05-14T12:37:46.690Z,62.42
2023-05-14T12:38:49.072Z,62.75
2023-05-14T12:39:50.668Z,62.95
2023-05-14T12:40:52.168Z,63.53
2023-05-14T12:41:53.694Z,63.51
2023-05-14T12:42:56.720Z,61.85
2023-05-14T12:43:59.613Z,62.47
2023-05-14T12:45:01.127Z,62.53
2023-05-14T12:46:02.871Z,61.54
2023-05-14T12:47:04.586Z,60.18
2023-05-14T12:48:06.737Z,60.95
2023-05-14T12:49:08.400Z,61.68
2023-05-14T12:50:10.393Z,61.54
2023-05-14T12:51:12.163Z,61.13
2023-05-14T12:53:18.232Z,62.05
2023-05-14T12:54:19.802Z,62.24
2023-05-14T12:55:21.607Z,61.89
2023-05-14T12:56:23.223Z,61.43
2023-05-14T12:57:24.855Z,62.52
2023-05-14T12:58:26.429Z,62.53
2023-05-14T12:59:27.948Z,61.58
2023-05-14T13:00:29.593Z,61.37
2023-05-14T13:01:31.438Z,59.50
2023-05-14T13:02:33.047Z,59.77
2023-05-14T13:03:43.963Z,59.71
2023-05-14T13:04:45.537Z,59.75
2023-05-14T13:05:47.166Z,60.09
2023-05-14T13:06:48.733Z,60.30
2023-05-14T13:07:52.757Z,60.41
2023-05-14T13:08:54.329Z,59.63
2023-05-14T13:09:56.293Z,60.78
2023-05-14T13:10:57.826Z,60.87
2023-05-14T13:11:59.378Z,61.87
2023-05-14T13:13:01.031Z,61.54
2023-05-14T13:14:02.780Z,60.02
2023-05-14T13:15:04.930Z,59.41
2023-05-14T13:16:06.742Z,59.49
2023-05-14T13:17:08.389Z,59.66